createdAt,value
2023-05-16T00:02:17.581Z,102265.13
2023-05-16T00:04:46.472Z,102264.31
2023-05-16T00:07:15.006Z,102269.53
2023-05-16T00:09:43.255Z,102275.06
2023-05-16T00:12:12.038Z,102272.50
2023-05-16T00:14:40.709Z,102268.22
2023-05-16T00:17:12.427Z,102276.09
2023-05-16T00:19:42.440Z,102279.03
2023-05-16T00:22:11.827Z,102280.03
2023-05-16T00:24:40.467Z,102280.19
2023-05-16T00:27:09.103Z,102286.50
2023-05-16T00:29:37.623Z,102281.72
2023-05-16T00:32:08.842Z,102283.06
2023-05-16T00:34:39.036Z,102275.25
2023-05-16T00:37:07.586Z,102277.22
2023-05-16T00:39:36.261Z,102275.38
2023-05-16T00:42:04.864Z,102281.63
2023-05-16T00:44:33.518Z,102272.94
2023-05-16T00:47:03.236Z,102277.47
2023-05-16T00:49:32.030Z,102271.44
2023-05-16T00:52:02.631Z,102280.94
2023-05-16T00:54:32.410Z,102279.13
2023-05-16T00:57:00.849Z,102283.78
2023-05-16T00:59:29.514Z,102290.94
2023-05-16T01:01:57.915Z,102289.19
2023-05-16T01:04:27.052Z,102284.41
2023-05-16T01:06:57.038Z,102277.34
2023-05-16T01:09:30.322Z,102274.78
2023-05-16T01:12:09.541Z,102275.72
2023-05-16T01:14:47.517Z,102284.41
2023-05-16T01:17:24.848Z,102281.84
2023-05-16T01:20:05.300Z,102264.66
2023-05-16T01:22:46.291Z,102270.03
2023-05-16T01:25:33.113Z,102273.69
2023-05-16T01:28:04.526Z,102259.75
2023-05-16T01:30:36.607Z,102262.44
2023-05-16T01:33:05.318Z,102271.13
2023-05-16T01:35:34.252Z,102267.69
2023-05-16T01:38:08.002Z,102267.22
2023-05-16T01:40:47.514Z,102271.69
2023-05-16T01:43:23.098Z,102276.28
2023-05-16T01:46:01.783Z,102287.97
2023-05-16T01:48:39.115Z,102279.28
2023-05-16T01:51:08.782Z,102281.41
2023-05-16T01:53:40.431Z,102285.31
2023-05-16T01:56:16.865Z,102288.09
2023-05-16T01:58:49.650Z,102282.41
2023-05-16T02:01:18.294Z,102288.13
2023-05-16T02:03:46.977Z,102292.63
2023-05-16T02:06:15.389Z,102290.41
2023-05-16T02:08:44.214Z,102308.28
2023-05-16T02:11:12.534Z,102299.78
2023-05-16T02:13:41.062Z,102303.28
2023-05-16T02:16:12.493Z,102288.53
2023-05-16T02:18:41.680Z,102292.25
2023-05-16T02:21:10.224Z,102295.81
2023-05-16T02:23:38.589Z,102301.97
2023-05-16T02:26:07.092Z,102316.03
2023-05-16T02:28:35.597Z,102302.75
2023-05-16T02:31:04.836Z,102299.22
2023-05-16T02:33:36.033Z,102285.22
2023-05-16T02:36:04.668Z,102295.34
2023-05-16T02:38:33.168Z,102291.97
2023-05-16T02:41:01.593Z,102298.00
2023-05-16T02:43:30.081Z,102296.38
2023-05-16T02:45:58.717Z,102297.22
2023-05-16T02:48:27.260Z,102291.97
2023-05-16T02:50:57.340Z,102286.72
2023-05-16T02:53:25.849Z,102284.16
2023-05-16T02:55:54.189Z,102281.44
2023-05-16T02:58:22.570Z,102286.69
2023-05-16T03:00:51.051Z,102277.16
2023-05-16T03:03:19.919Z,102282.47
2023-05-16T03:05:49.053Z,102286.09
2023-05-16T03:08:19.051Z,102290.72
2023-05-16T03:10:47.538Z,102292.53
2023-05-16T03:13:16.369Z,102291.75
2023-05-16T03:15:45.137Z,102299.75
2023-05-16T03:18:14.077Z,102302.53
2023-05-16T03:20:42.424Z,102304.47
2023-05-16T03:23:11.236Z,102308.13
2023-05-16T03:25:41.146Z,102306.47
2023-05-16T03:28:10.266Z,102310.88
2023-05-16T03:30:38.792Z,102308.19
2023-05-16T03:33:07.283Z,102316.28
2023-05-16T03:35:36.891Z,102319.75
2023-05-16T03:38:05.812Z,102311.91
2023-05-16T03:40:34.264Z,102306.81
2023-05-16T03:43:04.941Z,102304.94
2023-05-16T03:45:33.229Z,102303.31
2023-05-16T03:48:01.921Z,102307.78
2023-05-16T03:50:30.508Z,102310.50
2023-05-16T03:52:59.832Z,102307.00
2023-05-16T03:55:28.601Z,102314.94
2023-05-16T03:57:57.397Z,102325.44
2023-05-16T04:00:28.072Z,102316.66
2023-05-16T04:02:56.890Z,102310.63
2023-05-16T04:05:25.634Z,102313.47
2023-05-16T04:07:54.372Z,102321.69
2023-05-16T04:10:23.181Z,102323.66
2023-05-16T04:12:51.947Z,102328.06
2023-05-16T04:15:21.096Z,102324.16
2023-05-16T04:17:51.511Z,102328.66
2023-05-16T04:20:19.846Z,102326.97
2023-05-16T04:22:48.920Z,102327.75
2023-05-16T04:25:17.547Z,102325.13
2023-05-16T04:27:46.075Z,102329.47
2023-05-16T04:30:16.301Z,102326.09
2023-05-16T04:32:45.119Z,102330.31
2023-05-16T04:35:15.371Z,102331.09
2023-05-16T04:37:44.162Z,102344.19
2023-05-16T04:40:14.607Z,102342.31
2023-05-16T04:42:43.287Z,102341.38
2023-05-16T04:45:14.805Z,102340.47
2023-05-16T04:47:43.511Z,102344.84
2023-05-16T04:50:12.554Z,102343.91
2023-05-16T04:52:42.531Z,102344.84
2023-05-16T04:55:12.501Z,102350.09
2023-05-16T04:57:40.948Z,102350.94
2023-05-16T05:00:12.376Z,102355.25
2023-05-16T05:02:41.176Z,102358.66
2023-05-16T05:05:11.563Z,102359.38
2023-05-16T05:07:41.704Z,102355.00
2023-05-16T05:10:11.905Z,102362.59
2023-05-16T05:12:40.297Z,102364.25
2023-05-16T05:15:09.793Z,102364.16
2023-05-16T05:17:39.475Z,102358.78
2023-05-16T05:20:10.819Z,102353.31
2023-05-16T05:22:39.422Z,102356.66
2023-05-16T05:25:10.332Z,102360.16
2023-05-16T05:27:39.141Z,102360.09
2023-05-16T05:30:08.982Z,102363.44
2023-05-16T05:32:37.641Z,102360.81
2023-05-16T05:35:07.615Z,102368.47
2023-05-16T05:37:36.464Z,102367.53
2023-05-16T05:40:05.415Z,102370.81
2023-05-16T05:42:35.526Z,102375.03
2023-05-16T05:45:04.995Z,102374.88
2023-05-16T05:47:33.506Z,102375.59
2023-05-16T05:50:02.863Z,102376.53
2023-05-16T05:52:31.956Z,102368.59
2023-05-16T05:55:00.704Z,102379.00
2023-05-16T05:57:29.067Z,102382.31
2023-05-16T05:59:59.150Z,102379.41
2023-05-16T06:02:27.505Z,102381.88
2023-05-16T06:04:56.310Z,102379.22
2023-05-16T06:07:24.817Z,102378.13
2023-05-16T06:09:53.288Z,102392.97
2023-05-16T06:12:21.811Z,102397.16
2023-05-16T06:14:50.207Z,102400.31
2023-05-16T06:17:20.416Z,102397.53
2023-05-16T06:19:49.023Z,102400.06
2023-05-16T06:22:17.756Z,102398.25
2023-05-16T06:24:46.193Z,102405.16
2023-05-16T06:27:14.577Z,102406.84
2023-05-16T06:29:42.880Z,102405.88
2023-05-16T06:32:13.384Z,102418.38
2023-05-16T06:34:43.384Z,102409.31
2023-05-16T06:37:12.046Z,102422.16
2023-05-16T06:39:40.378Z,102421.22
2023-05-16T06:42:09.241Z,102419.81
2023-05-16T06:44:37.640Z,102424.41
2023-05-16T06:47:06.737Z,102421.66
2023-05-16T06:49:35.104Z,102421.44
2023-05-16T06:52:05.949Z,102424.81
2023-05-16T06:54:34.801Z,102431.72
2023-05-16T06:57:04.308Z,102421.84
2023-05-16T06:59:32.786Z,102426.75
2023-05-16T07:02:01.570Z,102433.38
2023-05-16T07:04:30.906Z,102425.38
2023-05-16T07:06:59.448Z,102429.28
2023-05-16T07:09:29.428Z,102430.66
2023-05-16T07:11:57.859Z,102435.84
2023-05-16T07:14:26.486Z,102430.69
2023-05-16T07:16:55.304Z,102436.28
2023-05-16T07:19:24.241Z,102439.44
2023-05-16T07:21:52.737Z,102441.78
2023-05-16T07:24:21.216Z,102440.00
2023-05-16T07:26:52.170Z,102436.97
2023-05-16T07:29:20.654Z,102439.38
2023-05-16T07:31:50.209Z,102432.84
2023-05-16T07:34:21.190Z,102433.53
2023-05-16T07:36:49.909Z,102430.44
2023-05-16T07:39:18.468Z,102426.50
2023-05-16T07:41:47.900Z,102422.59
2023-05-16T07:44:18.973Z,102412.78
2023-05-16T07:46:47.388Z,102422.28
2023-05-16T07:49:16.188Z,102422.00
2023-05-16T07:51:44.764Z,102415.03
2023-05-16T07:54:13.332Z,102419.81
2023-05-16T07:56:42.025Z,102413.41
2023-05-16T07:59:12.675Z,102416.06
2023-05-16T08:01:45.400Z,102417.63
2023-05-16T08:04:14.592Z,102423.50
2023-05-16T08:06:44.212Z,102426.38
2023-05-16T08:09:12.997Z,102423.44
2023-05-16T08:11:41.555Z,102422.31
2023-05-16T08:14:10.189Z,102417.31
2023-05-16T08:16:38.831Z,102411.25
2023-05-16T08:19:08.911Z,102410.88
2023-05-16T08:21:38.729Z,102407.91
2023-05-16T08:24:07.873Z,102413.38
2023-05-16T08:26:37.787Z,102408.59
2023-05-16T08:29:06.467Z,102405.50
2023-05-16T08:31:36.520Z,102400.81
2023-05-16T08:34:06.751Z,102393.06
2023-05-16T08:36:36.739Z,102396.97
2023-05-16T08:39:06.367Z,102387.41
2023-05-16T08:41:35.062Z,102390.75
2023-05-16T08:44:03.739Z,102386.72
2023-05-16T08:46:35.877Z,102389.13
2023-05-16T08:49:08.214Z,102379.13
2023-05-16T08:51:39.946Z,102382.09
2023-05-16T08:54:13.709Z,102374.06
2023-05-16T08:56:44.112Z,102377.91
2023-05-16T08:59:13.268Z,102378.56
2023-05-16T09:01:43.311Z,102376.25
2023-05-16T09:04:13.469Z,102374.69
2023-05-16T09:06:43.451Z,102372.22
2023-05-16T09:09:13.305Z,102362.31
2023-05-16T09:11:41.784Z,102364.81
2023-05-16T09:14:10.231Z,102359.94
2023-05-16T09:16:39.482Z,102357.53
2023-05-16T09:19:09.654Z,102354.88
2023-05-16T09:21:38.436Z,102354.94
2023-05-16T09:24:11.471Z,102348.53
2023-05-16T09:26:42.113Z,102350.81
2023-05-16T09:29:14.381Z,102360.41
2023-05-16T09:31:42.966Z,102347.44
2023-05-16T09:34:13.296Z,102344.69
2023-05-16T09:36:43.784Z,102355.09
2023-05-16T09:39:17.146Z,102360.34
2023-05-16T09:41:46.238Z,102360.00
2023-05-16T09:44:15.162Z,102360.16
2023-05-16T09:46:44.297Z,102357.00
2023-05-16T09:49:14.655Z,102353.34
2023-05-16T09:51:43.491Z,102355.59
2023-05-16T09:54:13.540Z,102360.63
2023-05-16T09:56:51.878Z,102358.22
2023-05-16T09:59:20.792Z,102347.94
2023-05-16T10:01:52.519Z,102350.94
2023-05-16T10:04:21.025Z,102347.59
2023-05-16T10:06:52.785Z,102358.13
2023-05-16T10:09:25.412Z,102360.63
2023-05-16T10:11:56.561Z,102351.50
2023-05-16T10:14:28.185Z,102352.97
2023-05-16T10:16:59.170Z,102353.75
2023-05-16T10:19:28.305Z,102342.69
2023-05-16T10:22:00.874Z,102345.66
2023-05-16T10:24:45.565Z,102343.44
2023-05-16T10:27:15.230Z,102352.59
2023-05-16T10:29:54.123Z,102346.75
2023-05-16T10:32:26.194Z,102346.34
2023-05-16T10:34:56.477Z,102348.34
2023-05-16T10:37:27.287Z,102340.91
2023-05-16T10:39:58.521Z,102351.78
2023-05-16T10:42:28.704Z,102347.94
2023-05-16T10:45:04.949Z,102354.59
2023-05-16T10:47:35.465Z,102345.13
2023-05-16T10:50:04.365Z,102348.34
2023-05-16T10:52:36.740Z,102340.47
2023-05-16T10:55:08.164Z,102346.88
2023-05-16T10:57:37.234Z,102346.47
2023-05-16T11:00:23.219Z,102337.69
2023-05-16T11:02:53.200Z,102349.41
2023-05-16T11:05:21.931Z,102354.84
2023-05-16T11:08:05.847Z,102344.97
2023-05-16T11:10:36.159Z,102344.72
2023-05-16T11:13:09.091Z,102339.31
2023-05-16T11:15:37.537Z,102336.84
2023-05-16T11:18:10.852Z,102338.91
2023-05-16T11:20:43.025Z,102338.97
2023-05-16T11:23:25.450Z,102334.03
2023-05-16T11:26:01.347Z,102327.06
2023-05-16T11:28:31.196Z,102311.63
2023-05-16T11:31:02.587Z,102318.91
2023-05-16T11:33:36.281Z,102316.81
2023-05-16T11:36:15.802Z,102313.81
2023-05-16T11:38:45.624Z,102316.19
2023-05-16T11:41:18.009Z,102308.03
2023-05-16T11:43:47.561Z,102314.09
2023-05-16T11:46:17.818Z,102314.88
2023-05-16T11:48:47.747Z,102318.38
2023-05-16T11:51:21.096Z,102319.53
2023-05-16T11:53:50.946Z,102317.03
2023-05-16T11:56:23.554Z,102306.38
2023-05-16T11:58:53.649Z,102314.94
2023-05-16T12:01:22.372Z,102308.25
2023-05-16T12:03:58.342Z,102312.28
2023-05-16T12:06:29.635Z,102319.09
2023-05-16T12:08:57.989Z,102315.69
2023-05-16T12:11:28.152Z,102325.78
2023-05-16T12:13:57.094Z,102317.63
2023-05-16T12:16:26.223Z,102319.53
2023-05-16T12:18:56.553Z,102316.34
2023-05-16T12:21:25.238Z,102311.94
2023-05-16T12:23:57.914Z,102305.00
2023-05-16T12:26:31.217Z,102309.34
2023-05-16T12:29:03.611Z,102306.44
2023-05-16T12:31:33.597Z,102305.03
2023-05-16T12:34:02.202Z,102299.78
2023-05-16T12:36:35.218Z,102315.66
2023-05-16T12:39:04.497Z,102312.94
2023-05-16T12:41:34.766Z,102303.38
2023-05-16T12:44:14.673Z,102297.84
2023-05-16T12:46:44.633Z,102297.03
2023-05-16T12:49:15.050Z,102300.28
2023-05-16T12:51:51.385Z,102295.78
2023-05-16T12:54:21.143Z,102297.41
2023-05-16T12:56:51.409Z,102291.16
2023-05-16T12:59:20.457Z,102296.47
2023-05-16T13:01:49.053Z,102293.75
2023-05-16T13:04:23.184Z,102290.75
2023-05-16T13:09:24.206Z,102291.22
2023-05-16T13:11:54.321Z,102292.75
2023-05-16T13:14:23.360Z,102301.06
2023-05-16T13:16:51.862Z,102291.16
2023-05-16T13:19:20.471Z,102295.66
2023-05-16T13:21:50.304Z,102293.28
2023-05-16T13:24:18.781Z,102290.03
2023-05-16T13:26:47.540Z,102301.63
2023-05-16T13:29:17.822Z,102303.50
2023-05-16T13:31:46.654Z,102294.47
2023-05-16T13:34:15.196Z,102288.34
2023-05-16T13:36:54.065Z,102299.41
2023-05-16T13:39:25.368Z,102298.81
2023-05-16T13:41:54.161Z,102298.22
2023-05-16T13:44:24.124Z,102303.94
2023-05-16T13:46:53.029Z,102296.63
2023-05-16T13:49:22.420Z,102298.22
2023-05-16T13:51:52.359Z,102298.47
2023-05-16T13:54:22.224Z,102294.53
2023-05-16T13:56:50.796Z,102303.19
2023-05-16T13:59:27.508Z,102299.91
2023-05-16T14:02:09.940Z,102305.63
2023-05-16T14:04:38.680Z,102306.44
2023-05-16T14:07:07.502Z,102313.13
2023-05-16T14:09:39.403Z,102309.06
2023-05-16T14:12:08.779Z,102303.84
2023-05-16T14:14:37.922Z,102311.44
2023-05-16T14:17:07.851Z,102295.78
2023-05-16T14:19:37.880Z,102302.69
2023-05-16T14:22:06.775Z,102301.50
2023-05-16T14:24:35.417Z,102299.66
2023-05-16T14:27:04.200Z,102299.19
2023-05-16T14:29:32.781Z,102302.81
2023-05-16T14:32:01.280Z,102291.44
2023-05-16T14:34:30.489Z,102290.00
2023-05-16T14:37:02.244Z,102290.44
2023-05-16T14:39:30.654Z,102290.19
2023-05-16T14:41:59.509Z,102286.97
2023-05-16T14:44:28.177Z,102280.38
2023-05-16T14:46:57.152Z,102278.06
2023-05-16T14:49:25.854Z,102283.84
2023-05-16T14:51:54.734Z,102283.38
2023-05-16T14:54:25.123Z,102279.53
2023-05-16T14:56:53.576Z,102295.47
2023-05-16T14:59:22.328Z,102286.13
2023-05-16T15:01:50.711Z,102289.34
2023-05-16T15:04:19.425Z,102282.41
2023-05-16T15:06:47.969Z,102285.84
2023-05-16T15:09:17.861Z,102285.22
2023-05-16T15:11:47.822Z,102288.59
2023-05-16T15:14:16.234Z,102285.91
2023-05-16T15:16:44.857Z,102282.94
2023-05-16T15:19:13.535Z,102282.94
2023-05-16T15:21:42.125Z,102281.22
2023-05-16T15:24:10.808Z,102278.59
2023-05-16T15:26:40.810Z,102263.53
2023-05-16T15:29:11.160Z,102276.22
2023-05-16T15:31:40.101Z,102262.25
2023-05-16T15:34:08.916Z,102254.19
2023-05-16T15:36:37.742Z,102254.72
2023-05-16T15:39:06.197Z,102265.97
2023-05-16T15:41:56.988Z,102259.50
2023-05-16T15:44:25.582Z,102255.09
2023-05-16T15:46:53.875Z,102258.28
2023-05-16T15:49:22.418Z,102277.59
2023-05-16T15:51:52.352Z,102276.19
2023-05-16T15:54:21.059Z,102279.31
2023-05-16T15:56:49.626Z,102278.41
2023-05-16T15:59:18.714Z,102282.13
2023-05-16T16:01:48.847Z,102280.69
2023-05-16T16:04:21.041Z,102280.22
2023-05-16T16:06:51.166Z,102277.66
2023-05-16T16:09:19.650Z,102277.91
2023-05-16T16:11:48.297Z,102274.31
2023-05-16T16:14:16.778Z,102283.59
2023-05-16T16:16:45.728Z,102275.41
2023-05-16T16:19:15.660Z,102278.09
2023-05-16T16:21:44.466Z,102269.53
2023-05-16T16:24:13.525Z,102268.88
2023-05-16T16:26:43.772Z,102271.91
2023-05-16T16:29:12.469Z,102275.19
2023-05-16T16:31:41.335Z,102281.88
2023-05-16T16:34:10.213Z,102275.88
2023-05-16T16:36:41.318Z,102280.00
2023-05-16T16:39:10.911Z,102284.19
2023-05-16T16:41:39.643Z,102283.38
2023-05-16T16:44:08.322Z,102280.78
2023-05-16T16:46:37.106Z,102287.97
2023-05-16T16:49:05.953Z,102292.84
2023-05-16T16:51:36.118Z,102290.69
2023-05-16T16:54:15.425Z,102283.53
2023-05-16T16:56:44.210Z,102284.38
2023-05-16T16:59:12.885Z,102288.25
2023-05-16T17:01:41.705Z,102279.84
2023-05-16T17:04:10.246Z,102268.25
2023-05-16T17:06:41.486Z,102268.50
2023-05-16T17:09:14.158Z,102269.53
2023-05-16T17:11:42.892Z,102278.38
2023-05-16T17:14:12.749Z,102270.75
2023-05-16T17:16:41.483Z,102273.06
2023-05-16T17:19:11.600Z,102267.84
2023-05-16T17:21:42.039Z,102272.88
2023-05-16T17:24:12.231Z,102263.84
2023-05-16T17:26:40.899Z,102270.41
2023-05-16T17:29:09.366Z,102268.25
2023-05-16T17:31:37.995Z,102282.47
2023-05-16T17:34:06.555Z,102286.00
2023-05-16T17:36:36.508Z,102288.91
2023-05-16T17:39:08.046Z,102282.69
2023-05-16T17:41:49.662Z,102288.44
2023-05-16T17:44:21.671Z,102292.19
2023-05-16T17:46:50.588Z,102296.75
2023-05-16T17:49:19.093Z,102295.69
2023-05-16T17:51:48.813Z,102298.53
2023-05-16T17:54:18.750Z,102301.09
2023-05-16T17:56:49.894Z,102306.53
2023-05-16T17:59:19.500Z,102308.59
2023-05-16T18:01:56.339Z,102309.47
2023-05-16T18:04:40.433Z,102306.44
2023-05-16T18:10:56.823Z,102310.09
2023-05-16T18:13:29.471Z,102312.66
2023-05-16T18:15:57.950Z,102311.09
2023-05-16T18:18:27.308Z,102309.03
2023-05-16T18:20:55.716Z,102311.72
2023-05-16T18:23:24.878Z,102307.81
2023-05-16T18:25:54.200Z,102308.44
2023-05-16T18:28:22.757Z,102310.50
2023-05-16T18:30:52.753Z,102321.19
2023-05-16T18:33:21.277Z,102318.97
2023-05-16T18:35:49.681Z,102314.59
2023-05-16T18:38:31.509Z,102315.22
2023-05-16T18:41:01.542Z,102315.94
2023-05-16T18:43:30.531Z,102312.84
2023-05-16T18:46:00.473Z,102310.78
2023-05-16T18:48:29.451Z,102314.34
2023-05-16T18:50:57.909Z,102315.00
2023-05-16T18:53:26.528Z,102315.72
2023-05-16T18:55:55.089Z,102315.84
2023-05-16T18:58:23.802Z,102313.91
2023-05-16T19:00:53.058Z,102315.09
2023-05-16T19:03:23.365Z,102315.06
2023-05-16T19:05:53.395Z,102321.63
2023-05-16T19:08:25.596Z,102325.22
2023-05-16T19:10:57.480Z,102317.81
2023-05-16T19:13:25.912Z,102320.16
2023-05-16T19:15:55.096Z,102320.88
2023-05-16T19:18:25.431Z,102319.06
2023-05-16T19:20:54.409Z,102323.25
2023-05-16T19:23:22.984Z,102328.84
2023-05-16T19:25:52.448Z,102330.03
2023-05-16T19:28:36.295Z,102328.63
2023-05-16T19:31:05.267Z,102332.84
2023-05-16T19:33:35.540Z,102333.84
2023-05-16T19:36:06.280Z,102332.59
2023-05-16T19:38:34.598Z,102333.00
2023-05-16T19:41:03.108Z,102337.06
2023-05-16T19:43:31.532Z,102342.38
2023-05-16T19:46:03.540Z,102344.63
2023-05-16T19:48:35.561Z,102342.19
2023-05-16T19:51:05.667Z,102344.97
2023-05-16T19:53:34.171Z,102345.28
2023-05-16T19:56:02.725Z,102349.97
2023-05-16T19:58:32.204Z,102349.53
2023-05-16T20:01:00.855Z,102342.31
2023-05-16T20:03:31.342Z,102345.50
2023-05-16T20:06:01.499Z,102352.84
2023-05-16T20:08:29.919Z,102351.44
2023-05-16T20:10:58.334Z,102351.56
2023-05-16T20:13:26.855Z,102356.16
2023-05-16T20:15:55.504Z,102358.25
2023-05-16T20:18:27.027Z,102359.63
2023-05-16T20:20:57.992Z,102362.84
2023-05-16T20:23:28.837Z,102371.78
2023-05-16T20:25:59.400Z,102372.41
2023-05-16T20:28:27.714Z,102370.13
2023-05-16T20:30:56.755Z,102375.88
2023-05-16T20:33:25.715Z,102375.34
2023-05-16T20:35:56.267Z,102380.00
2023-05-16T20:38:24.912Z,102377.19
2023-05-16T20:40:58.158Z,102383.66
2023-05-16T20:43:27.301Z,102382.50
2023-05-16T20:45:56.103Z,102379.06
2023-05-16T20:48:25.875Z,102394.19
2023-05-16T20:50:57.355Z,102394.41
2023-05-16T20:53:28.111Z,102391.81
2023-05-16T20:55:58.157Z,102399.34
2023-05-16T20:58:28.883Z,102395.84
2023-05-16T21:00:57.529Z,102401.84
2023-05-16T21:03:26.101Z,102401.09
2023-05-16T21:05:56.020Z,102400.03
2023-05-16T21:08:24.858Z,102394.84
2023-05-16T21:10:53.443Z,102399.41
2023-05-16T21:13:24.581Z,102404.78
2023-05-16T21:15:53.438Z,102406.72
2023-05-16T21:18:23.102Z,102402.53
2023-05-16T21:20:51.619Z,102404.53
2023-05-16T21:23:23.037Z,102408.34
2023-05-16T21:25:51.536Z,102411.50
2023-05-16T21:28:22.851Z,102413.78
2023-05-16T21:30:52.937Z,102410.34
2023-05-16T21:33:23.493Z,102420.97
2023-05-16T21:35:55.644Z,102421.19
2023-05-16T21:38:25.884Z,102416.16
2023-05-16T21:40:55.394Z,102412.66
2023-05-16T21:43:25.301Z,102418.91
2023-05-16T21:45:55.963Z,102419.28
2023-05-16T21:48:24.714Z,102420.25
2023-05-16T21:50:53.746Z,102412.28
2023-05-16T21:53:24.284Z,102418.56
2023-05-16T21:55:53.720Z,102423.09
2023-05-16T21:58:25.435Z,102424.22
2023-05-16T22:00:54.009Z,102425.00
2023-05-16T22:03:22.504Z,102418.91
2023-05-16T22:05:52.095Z,102421.31
2023-05-16T22:08:20.812Z,102430.94
2023-05-16T22:10:49.161Z,102435.34
2023-05-16T22:13:18.550Z,102430.72
2023-05-16T22:16:03.261Z,102437.25
2023-05-16T22:18:34.109Z,102437.94
2023-05-16T22:21:05.351Z,102438.88
2023-05-16T22:23:34.260Z,102433.59
2023-05-16T22:26:04.473Z,102442.78
2023-05-16T22:28:35.301Z,102436.88
2023-05-16T22:31:05.433Z,102442.19
2023-05-16T22:33:34.040Z,102451.44
2023-05-16T22:36:03.447Z,102447.75
2023-05-16T22:38:32.073Z,102448.59
2023-05-16T22:41:03.484Z,102457.31
2023-05-16T22:43:32.233Z,102442.19
2023-05-16T22:46:03.265Z,102443.13
2023-05-16T22:48:33.561Z,102441.59
2023-05-16T22:51:02.801Z,102441.78
2023-05-16T22:53:31.701Z,102448.53
2023-05-16T22:56:00.433Z,102448.44
2023-05-16T22:58:33.389Z,102442.06
2023-05-16T23:01:03.166Z,102445.56
2023-05-16T23:03:35.095Z,102448.47
2023-05-16T23:06:04.963Z,102450.53
2023-05-16T23:08:33.598Z,102445.22
2023-05-16T23:11:04.234Z,102457.44
2023-05-16T23:13:34.082Z,102450.94
2023-05-16T23:16:04.660Z,102449.56
2023-05-16T23:18:35.112Z,102450.25
2023-05-16T23:21:03.759Z,102448.69
2023-05-16T23:23:32.329Z,102455.94
2023-05-16T23:26:00.959Z,102464.50
2023-05-16T23:28:30.472Z,102459.53
2023-05-16T23:31:03.082Z,102460.06
2023-05-16T23:33:31.597Z,102467.91
2023-05-16T23:36:02.717Z,102471.63
2023-05-16T23:38:32.254Z,102471.63
2023-05-16T23:41:01.833Z,102474.94
2023-05-16T23:43:36.137Z,102477.03
2023-05-16T23:46:04.793Z,102471.72
2023-05-16T23:48:33.492Z,102477.81
2023-05-16T23:51:07.935Z,102480.38
2023-05-16T23:53:37.812Z,102477.41
2023-05-16T23:56:06.751Z,102487.50
2023-05-16T23:58:35.375Z,102486.78
